createdAt,value
2023-03-08T00:00:11.059Z,18.30
2023-03-08T00:05:13.838Z,20.27
2023-03-08T00:10:18.638Z,18.85
2023-03-08T00:15:21.352Z,12.50
2023-03-08T00:20:30.595Z,13.15
2023-03-08T00:52:57.085Z,18.50
2023-03-08T00:57:59.920Z,15.77
2023-03-08T01:03:02.887Z,19.85
2023-03-08T01:08:07.335Z,18.70
2023-03-08T01:13:10.597Z,17.60
2023-03-08T01:18:14.091Z,22.13
2023-03-08T01:23:18.251Z,19.25
2023-03-08T01:28:21.065Z,15.05
2023-03-08T01:33:25.092Z,15.00
2023-03-08T01:38:29.320Z,18.35
2023-03-08T01:43:34.004Z,20.02
2023-03-08T01:48:41.897Z,17.15
2023-03-08T01:53:50.065Z,16.25
2023-03-08T01:58:53.602Z,17.02
2023-03-08T02:03:56.916Z,16.58
2023-03-08T02:09:05.049Z,13.27
2023-03-08T02:14:08.052Z,11.40
2023-03-08T02:19:18.401Z,5.60
2023-03-08T02:24:25.814Z,8.60
2023-03-08T02:29:28.669Z,9.02
2023-03-08T02:34:31.562Z,9.15
2023-03-08T02:39:36.141Z,7.95
2023-03-08T02:44:38.916Z,9.07
2023-03-08T02:49:41.753Z,8.82
2023-03-08T02:54:47.324Z,10.88
2023-03-08T02:59:50.168Z,12.65
2023-03-08T03:04:53.332Z,16.13
2023-03-08T03:09:57.965Z,14.15
2023-03-08T03:15:02.278Z,16.90
2023-03-08T03:20:06.445Z,18.77
2023-03-08T03:25:10.871Z,16.90
2023-03-08T03:30:14.304Z,15.35
2023-03-08T03:35:17.283Z,14.25
2023-03-08T03:40:21.718Z,14.93
2023-03-08T03:45:30.227Z,10.70
2023-03-08T03:50:33.488Z,17.58
2023-03-08T03:55:43.309Z,19.00
2023-03-08T04:00:46.674Z,22.08
2023-03-08T04:06:06.957Z,21.00
2023-03-08T04:11:14.636Z,19.60
2023-03-08T04:16:19.872Z,24.05
2023-03-08T04:21:24.121Z,28.33
2023-03-08T04:26:29.633Z,25.70
2023-03-08T04:31:34.832Z,21.48
2023-03-08T04:36:41.205Z,27.55
2023-03-08T04:41:46.851Z,25.40
2023-03-08T04:46:58.762Z,31.67
2023-03-08T04:52:15.803Z,34.88
2023-03-08T04:57:21.258Z,23.88
2023-03-08T05:02:26.202Z,35.72
2023-03-08T05:07:29.154Z,37.83
2023-03-08T05:12:37.190Z,37.20
2023-03-08T05:17:40.516Z,36.58
2023-03-08T05:22:57.277Z,36.08
2023-03-08T05:28:05.740Z,38.45
2023-03-08T05:33:08.902Z,39.38
2023-03-08T05:38:12.058Z,41.05
2023-03-08T05:43:16.402Z,43.47
2023-03-08T05:48:19.598Z,49.08
2023-03-08T05:53:23.570Z,46.30
2023-03-08T05:58:27.996Z,50.05
2023-03-08T06:03:30.892Z,48.60
2023-03-08T06:08:33.924Z,51.35
2023-03-08T06:13:38.428Z,55.95
2023-03-08T06:18:42.829Z,60.25
2023-03-08T06:23:48.716Z,59.47
2023-03-08T06:28:52.954Z,56.05
2023-03-08T06:33:56.547Z,58.28
2023-03-08T06:39:02.241Z,64.20
2023-03-08T06:44:06.693Z,64.07
2023-03-08T06:49:09.561Z,67.82
2023-03-08T06:54:17.531Z,60.20
2023-03-08T06:59:23.431Z,60.63
2023-03-08T07:04:26.297Z,69.15
2023-03-08T07:09:29.197Z,61.85
2023-03-08T07:14:33.363Z,16.05
2023-03-08T07:19:36.148Z,138.05
2023-03-08T07:24:39.165Z,113.35
2023-03-08T07:29:43.319Z,56.22
2023-03-08T07:34:46.383Z,41.15
2023-03-08T07:39:49.223Z,47.10
2023-03-08T07:44:53.338Z,53.00
2023-03-08T07:49:56.134Z,56.05
2023-03-08T07:54:59.169Z,60.30
2023-03-08T08:00:07.368Z,61.40
2023-03-08T08:05:15.051Z,58.63
2023-03-08T08:10:18.399Z,62.47
2023-03-08T08:15:25.201Z,60.50
2023-03-08T08:20:28.395Z,58.22
2023-03-08T08:25:31.126Z,57.13
2023-03-08T08:30:35.260Z,63.60
2023-03-08T08:35:43.385Z,59.92
2023-03-08T08:40:46.808Z,60.80
2023-03-08T08:45:55.839Z,50.40
2023-03-08T08:50:59.523Z,50.60
2023-03-08T08:56:23.825Z,50.17
2023-03-08T09:01:32.521Z,55.30
2023-03-08T09:06:35.309Z,60.35
2023-03-08T09:11:53.392Z,52.53
2023-03-08T09:16:58.698Z,50.22
2023-03-08T09:22:01.523Z,51.17
2023-03-08T09:27:06.142Z,46.47
2023-03-08T09:32:10.600Z,50.38
2023-03-08T09:37:13.773Z,51.60
2023-03-08T09:42:23.426Z,47.03
2023-03-08T09:47:48.176Z,47.17
2023-03-08T09:52:57.162Z,49.88
2023-03-08T09:58:03.092Z,52.63
2023-03-08T10:03:25.876Z,51.60
2023-03-08T10:08:36.060Z,41.70
2023-03-08T10:13:40.912Z,42.58
2023-03-08T10:18:50.488Z,42.10
2023-03-08T10:23:59.857Z,32.85
2023-03-08T10:29:02.602Z,31.60
2023-03-08T10:34:13.529Z,22.98
2023-03-08T10:39:17.335Z,18.85
2023-03-08T10:44:33.627Z,19.73
2023-03-08T10:49:37.934Z,20.55
2023-03-08T10:54:40.746Z,17.98
2023-03-08T10:59:51.118Z,20.75
2023-03-08T11:04:58.399Z,16.92
2023-03-08T11:10:19.911Z,16.90
2023-03-08T11:15:22.762Z,15.13
2023-03-08T11:20:32.886Z,11.32
2023-03-08T11:25:43.266Z,8.95
2023-03-08T11:30:56.746Z,7.90
2023-03-08T11:36:07.006Z,6.55
2023-03-08T11:41:24.756Z,5.82
2023-03-08T11:46:33.821Z,7.47
2023-03-08T11:51:45.167Z,8.82
2023-03-08T11:56:54.739Z,5.72
2023-03-08T12:02:03.133Z,4.60
2023-03-08T12:07:14.050Z,5.90
2023-03-08T12:12:22.554Z,3.20
2023-03-08T12:17:29.748Z,3.28
2023-03-08T12:22:46.331Z,4.10
2023-03-08T12:27:54.781Z,6.25
2023-03-08T12:33:00.221Z,7.10
2023-03-08T12:38:07.493Z,7.13
2023-03-08T12:43:13.278Z,6.85
2023-03-08T12:48:24.057Z,6.78
2023-03-08T12:53:34.384Z,3.63
2023-03-08T12:58:41.212Z,5.35
2023-03-08T13:03:44.051Z,6.13
2023-03-08T13:08:54.106Z,5.93
2023-03-08T13:14:01.464Z,6.22
2023-03-08T13:19:19.066Z,7.55
2023-03-08T13:24:36.554Z,5.25
2023-03-08T13:29:40.335Z,5.60
2023-03-08T13:34:45.497Z,4.10
2023-03-08T13:39:54.085Z,5.18
2023-03-08T13:45:09.236Z,2.58
2023-03-08T13:50:19.420Z,6.57
2023-03-08T13:55:30.936Z,3.38
2023-03-08T14:00:35.520Z,3.27
2023-03-08T14:05:43.679Z,3.75
2023-03-08T14:10:51.074Z,4.22
2023-03-08T14:15:56.922Z,3.85
2023-03-08T14:21:06.129Z,4.82
2023-03-08T14:31:39.059Z,7.18
2023-03-08T14:36:49.612Z,4.10
2023-03-08T14:41:52.614Z,6.15
2023-03-08T14:46:59.598Z,4.50
2023-03-08T14:52:02.857Z,5.10
2023-03-08T14:57:18.993Z,4.65
2023-03-08T15:02:23.302Z,6.25
2023-03-08T15:07:35.382Z,3.55
2023-03-08T15:12:38.168Z,4.45
2023-03-08T15:17:42.405Z,6.07
2023-03-08T15:22:48.210Z,5.43
2023-03-08T15:27:51.000Z,5.93
2023-03-08T15:32:57.934Z,6.20
2023-03-08T15:38:02.225Z,5.70
2023-03-08T15:43:05.017Z,4.45
2023-03-08T15:48:13.655Z,7.22
2023-03-08T15:53:29.383Z,6.15
2023-03-08T15:58:37.278Z,6.93
2023-03-08T16:03:41.842Z,7.95
2023-03-08T16:08:44.587Z,5.90
2023-03-08T16:13:49.526Z,6.85
2023-03-08T16:18:53.634Z,8.02
2023-03-08T16:23:57.400Z,8.02
2023-03-08T16:29:00.151Z,11.27
2023-03-08T16:34:05.467Z,10.52
2023-03-08T16:39:09.264Z,10.60
2023-03-08T16:44:20.206Z,14.35
2023-03-08T16:49:28.246Z,13.77
2023-03-08T16:54:31.035Z,14.38
2023-03-08T16:59:33.809Z,16.48
2023-03-08T17:04:37.936Z,15.25
2023-03-08T17:09:40.932Z,14.30
2023-03-08T17:14:44.593Z,16.33
2023-03-08T17:19:52.640Z,15.82
2023-03-08T17:24:55.604Z,17.42
2023-03-08T17:30:00.649Z,15.73
2023-03-08T17:35:05.417Z,18.33
2023-03-08T17:40:10.533Z,15.35
2023-03-08T17:45:14.060Z,16.67
2023-03-08T17:50:18.399Z,16.65
2023-03-08T17:55:21.218Z,17.65
2023-03-08T18:00:24.645Z,18.98
2023-03-08T18:05:29.122Z,19.13
2023-03-08T18:10:31.888Z,18.75
2023-03-08T18:15:34.696Z,18.88
2023-03-08T18:20:38.973Z,20.85
2023-03-08T18:25:41.839Z,23.25
2023-03-08T18:30:44.680Z,21.75
2023-03-08T18:35:56.889Z,20.13
2023-03-08T18:40:59.652Z,19.90
2023-03-08T18:46:02.410Z,21.73
2023-03-08T18:51:07.111Z,20.95
2023-03-08T18:56:10.533Z,22.70
2023-03-08T19:01:15.573Z,24.75
2023-03-08T19:06:19.779Z,23.17
2023-03-08T19:11:24.549Z,29.27
2023-03-08T19:16:29.766Z,31.63
2023-03-08T19:21:35.381Z,31.00
2023-03-08T19:26:40.967Z,28.55
2023-03-08T19:31:45.287Z,32.72
2023-03-08T19:36:49.888Z,32.88
2023-03-08T19:41:54.842Z,33.58
2023-03-08T19:46:58.239Z,32.47
2023-03-08T19:52:05.313Z,31.55
2023-03-08T19:57:08.242Z,32.53
2023-03-08T20:02:13.690Z,35.00
2023-03-08T20:07:21.196Z,35.33
2023-03-08T20:12:23.983Z,36.70
2023-03-08T20:17:27.639Z,34.30
2023-03-08T20:22:31.777Z,34.40
2023-03-08T20:27:35.412Z,40.95
2023-03-08T20:32:39.508Z,40.00
2023-03-08T20:37:43.786Z,36.17
2023-03-08T20:42:46.559Z,34.95
2023-03-08T20:47:49.315Z,34.50
2023-03-08T20:52:53.755Z,38.67
2023-03-08T20:57:56.526Z,35.58
2023-03-08T21:02:59.545Z,35.45
2023-03-08T21:08:04.639Z,34.13
2023-03-08T21:13:07.751Z,34.22
2023-03-08T21:18:10.541Z,34.33
2023-03-08T21:23:16.430Z,36.03
2023-03-08T21:28:19.433Z,34.85
2023-03-08T21:33:22.217Z,35.03
2023-03-08T21:38:26.348Z,35.08
2023-03-08T21:43:29.096Z,34.63
2023-03-08T21:48:32.090Z,34.70
2023-03-08T21:53:36.457Z,35.47
2023-03-08T21:58:39.670Z,39.60
2023-03-08T22:03:42.423Z,37.20
2023-03-08T22:08:47.073Z,40.53
2023-03-08T22:13:51.153Z,35.13
2023-03-08T22:18:54.975Z,38.53
2023-03-08T22:24:00.832Z,37.88
2023-03-08T22:29:03.805Z,42.47
2023-03-08T22:34:07.720Z,40.08
2023-03-08T22:39:12.977Z,39.15
2023-03-08T22:44:16.959Z,49.75
2023-03-08T22:49:19.703Z,43.67
2023-03-08T22:54:24.743Z,45.70
2023-03-08T22:59:27.578Z,48.03
2023-03-08T23:04:30.375Z,47.65
2023-03-08T23:09:35.497Z,52.70
2023-03-08T23:14:38.239Z,52.33
2023-03-08T23:19:44.971Z,47.97
2023-03-08T23:24:49.279Z,49.47
2023-03-08T23:29:52.926Z,50.20
2023-03-08T23:48:12.855Z,48.03
2023-03-08T23:53:15.626Z,49.20
2023-03-08T23:58:18.452Z,46.53
